Harstena, Sweden

12:46 AM CEST on October 01, 2014 (GMT +0200)
Kungsangen | Change Station
CLOSE
Current Station
Airport
Location: Norrkoping,
Elevation: 30 ft
Nearby Weather Stations

Elev 30 ft 58.59 °N, 16.25 °E | Updated 26 minutes ago

Clear
Clear
36 °F
Feels Like 36 °F
N
0
Wind Variable Wind from North

Today
High -- | Low -- °F
--% Chance of Precip.
Yesterday
High -- | Low -- °F
Precip. -- in
6:55 AM 6:26 PM
Waxing Crescent, 41% visible
Pressure 30.42 in
Visibility 6.2 miles
Clouds
Dew Point 36 °F
Humidity 100%
Rainfall 0.00 in
Snow Depth Not available.
UV Not available.
Pollen Not available.
Air Quality Not available.
Flu Activity Not available.
METAR ESSP 302220Z AUTO 00000KT 9999 NCD 02/02 Q1030

More Conditions Fewer Conditions

Pressure 30.42 in
Visibility 6.2 miles
Clouds
Dew Point 36 °F
Humidity 100%
Rainfall 0.00 in
Snow Depth Not available.
UV Not available.
Pollen Not available.
Air Quality Not available.
Flu Activity Not available.
METAR ESSP 302220Z AUTO 00000KT 9999 NCD 02/02 Q1030

More Conditions Fewer Conditions

10-Day Weather Forecast

Almanac

Astronomy

Oct. 01, 2014 Rise Set
Actual Time 6:55 AM CEST 6:26 PM CEST
Civil Twilight 6:16 AM CEST 7:05 PM CEST
Nautical Twilight 5:30 AM CEST 7:51 PM CEST
Astronomical Twilight 4:41 AM CEST 8:39 PM CEST
Moon 2:40 PM CEST (10/1) 10:41 PM CEST (10/1)
Length of Visible Light 12h 49m
Length of Day
11h 30m
Tomorrow will be 5m 2s shorter.
Waxing Crescent, 41% of the Moon is Illuminated
Sep 30
Waxing Crescent
Oct 1
First Quarter
Oct 8
Full
Oct 15
Last Quarter
Oct 23
New

Yesterday's Extremes

Country Highs Country Lows

Community

WunderPhotos

Upload Photos

1,757,767 photos uploaded!

Nearby

Snow Depth

Not available.

Earthquake Activity

City Distance Mag. Time & Date
No recent earthquake activity has been reported nearby.
Minimum magnitude displayed is 2.5.

Coastal Water Temperatures

Place Temperature
No Stations Reporting

Nearby Weather Stations